sensor_id;sensor_type;location;lat;lon;timestamp;temperature;humidity
12152;DHT22;6139;51.274;7.128;2023-06-19T00:00:52;22.90;1.00
12152;DHT22;6139;51.274;7.128;2023-06-19T00:01:53;22.90;1.00
12152;DHT22;6139;51.274;7.128;2023-06-19T00:02:57;22.90;1.00
12152;DHT22;6139;51.274;7.128;2023-06-19T00:03:58;22.80;1.00
12152;DHT22;6139;51.274;7.128;2023-06-19T00:05:00;22.90;1.00
12152;DHT22;6139;51.274;7.128;2023-06-19T00:06:01;22.90;1.00
12152;DHT22;6139;51.274;7.128;2023-06-19T00:07:04;22.90;1.00
12152;DHT22;6139;51.274;7.128;2023-06-19T00:08:05;22.90;1.00
12152;DHT22;6139;51.274;7.128;2023-06-19T00:09:07;22.80;1.00
12152;DHT22;6139;51.274;7.128;2023-06-19T00:10:08;22.80;1.00
12152;DHT22;6139;51.274;7.128;2023-06-19T00:11:10;22.80;1.00
12152;DHT22;6139;51.274;7.128;2023-06-19T00:12:11;22.70;1.00
12152;DHT22;6139;51.274;7.128;2023-06-19T00:13:13;22.70;94.00
12152;DHT22;6139;51.274;7.128;2023-06-19T00:14:15;22.70;99.90
12152;DHT22;6139;51.274;7.128;2023-06-19T00:15:18;22.70;99.90
12152;DHT22;6139;51.274;7.128;2023-06-19T00:16:19;22.70;99.90
12152;DHT22;6139;51.274;7.128;2023-06-19T00:17:21;22.60;99.90
12152;DHT22;6139;51.274;7.128;2023-06-19T00:18:23;22.60;1.00
12152;DHT22;6139;51.274;7.128;2023-06-19T00:19:25;22.60;1.00
12152;DHT22;6139;51.274;7.128;2023-06-19T00:20:26;22.60;1.00
12152;DHT22;6139;51.274;7.128;2023-06-19T00:21:28;22.60;1.00
12152;DHT22;6139;51.274;7.128;2023-06-19T00:22:30;22.60;1.00
12152;DHT22;6139;51.274;7.128;2023-06-19T00:23:32;22.50;36.40
12152;DHT22;6139;51.274;7.128;2023-06-19T00:24:32;22.50;99.90
12152;DHT22;6139;51.274;7.128;2023-06-19T00:25:34;22.50;99.90
12152;DHT22;6139;51.274;7.128;2023-06-19T00:26:35;22.50;99.90
12152;DHT22;6139;51.274;7.128;2023-06-19T00:27:37;22.50;99.90
12152;DHT22;6139;51.274;7.128;2023-06-19T00:28:38;22.40;99.90
12152;DHT22;6139;51.274;7.128;2023-06-19T00:29:42;22.40;99.90
12152;DHT22;6139;51.274;7.128;2023-06-19T00:30:43;22.40;99.90
12152;DHT22;6139;51.274;7.128;2023-06-19T00:31:45;22.40;1.00
12152;DHT22;6139;51.274;7.128;2023-06-19T00:32:46;22.40;99.90
12152;DHT22;6139;51.274;7.128;2023-06-19T00:33:51;22.40;99.90
12152;DHT22;6139;51.274;7.128;2023-06-19T00:34:52;22.40;1.00
12152;DHT22;6139;51.274;7.128;2023-06-19T00:35:54;22.40;99.90
12152;DHT22;6139;51.274;7.128;2023-06-19T00:36:55;22.30;99.90
12152;DHT22;6139;51.274;7.128;2023-06-19T00:37:58;22.30;99.90
12152;DHT22;6139;51.274;7.128;2023-06-19T00:39:01;22.30;99.90
12152;DHT22;6139;51.274;7.128;2023-06-19T00:40:04;22.30;99.90
12152;DHT22;6139;51.274;7.128;2023-06-19T00:41:05;22.30;99.90
12152;DHT22;6139;51.274;7.128;2023-06-19T00:42:07;22.20;99.90
12152;DHT22;6139;51.274;7.128;2023-06-19T00:43:08;22.30;99.90
12152;DHT22;6139;51.274;7.128;2023-06-19T00:44:10;22.30;99.90
12152;DHT22;6139;51.274;7.128;2023-06-19T00:45:11;22.30;99.90
12152;DHT22;6139;51.274;7.128;2023-06-19T00:46:13;22.30;99.90
12152;DHT22;6139;51.274;7.128;2023-06-19T00:47:14;22.30;99.90
12152;DHT22;6139;51.274;7.128;2023-06-19T00:48:17;22.20;99.90
12152;DHT22;6139;51.274;7.128;2023-06-19T00:49:20;22.20;99.90
12152;DHT22;6139;51.274;7.128;2023-06-19T00:50:22;22.20;99.90
12152;DHT22;6139;51.274;7.128;2023-06-19T00:51:24;22.20;99.90
12152;DHT22;6139;51.274;7.128;2023-06-19T00:52:26;22.20;99.90
12152;DHT22;6139;51.274;7.128;2023-06-19T00:53:27;22.10;99.90
12152;DHT22;6139;51.274;7.128;2023-06-19T00:54:30;22.10;99.90
12152;DHT22;6139;51.274;7.128;2023-06-19T00:55:32;22.20;99.90
12152;DHT22;6139;51.274;7.128;2023-06-19T00:56:37;22.20;99.90
12152;DHT22;6139;51.274;7.128;2023-06-19T00:57:38;22.20;99.90
12152;DHT22;6139;51.274;7.128;2023-06-19T00:58:41;22.20;99.90
12152;DHT22;6139;51.274;7.128;2023-06-19T00:59:42;22.10;99.90
12152;DHT22;6139;51.274;7.128;2023-06-19T01:00:44;22.10;93.20
12152;DHT22;6139;51.274;7.128;2023-06-19T01:01:45;22.10;99.90
12152;DHT22;6139;51.274;7.128;2023-06-19T01:02:48;22.10;99.90
12152;DHT22;6139;51.274;7.128;2023-06-19T01:03:49;22.10;1.00
12152;DHT22;6139;51.274;7.128;2023-06-19T01:04:54;22.10;1.00
12152;DHT22;6139;51.274;7.128;2023-06-19T01:05:57;22.10;99.90
12152;DHT22;6139;51.274;7.128;2023-06-19T01:07:08;22.10;99.90
12152;DHT22;6139;51.274;7.128;2023-06-19T01:08:17;22.10;99.90
12152;DHT22;6139;51.274;7.128;2023-06-19T01:09:23;22.00;1.00
12152;DHT22;6139;51.274;7.128;2023-06-19T01:10:29;22.00;1.00
12152;DHT22;6139;51.274;7.128;2023-06-19T01:11:34;22.00;99.90
12152;DHT22;6139;51.274;7.128;2023-06-19T01:12:42;21.90;1.00
12152;DHT22;6139;51.274;7.128;2023-06-19T01:13:53;21.90;99.90
12152;DHT22;6139;51.274;7.128;2023-06-19T01:14:58;21.90;1.00
12152;DHT22;6139;51.274;7.128;2023-06-19T01:16:01;22.00;62.10
12152;DHT22;6139;51.274;7.128;2023-06-19T01:17:04;22.00;1.00
12152;DHT22;6139;51.274;7.128;2023-06-19T01:18:06;22.00;99.90
12152;DHT22;6139;51.274;7.128;2023-06-19T01:19:10;21.90;1.00
12152;DHT22;6139;51.274;7.128;2023-06-19T01:20:18;21.90;1.00
12152;DHT22;6139;51.274;7.128;2023-06-19T01:21:20;21.90;96.30
12152;DHT22;6139;51.274;7.128;2023-06-19T01:22:27;21.90;1.00
12152;DHT22;6139;51.274;7.128;2023-06-19T01:23:29;21.90;99.90
12152;DHT22;6139;51.274;7.128;2023-06-19T01:24:30;21.90;99.90
12152;DHT22;6139;51.274;7.128;2023-06-19T01:25:31;21.90;99.90
12152;DHT22;6139;51.274;7.128;2023-06-19T01:26:32;22.00;18.20
12152;DHT22;6139;51.274;7.128;2023-06-19T01:27:35;22.00;1.00
12152;DHT22;6139;51.274;7.128;2023-06-19T01:28:36;22.00;1.00
12152;DHT22;6139;51.274;7.128;2023-06-19T01:29:39;22.00;42.20
12152;DHT22;6139;51.274;7.128;2023-06-19T01:30:41;22.00;99.90
12152;DHT22;6139;51.274;7.128;2023-06-19T01:31:54;22.00;1.00
12152;DHT22;6139;51.274;7.128;2023-06-19T01:33:02;22.00;1.00
12152;DHT22;6139;51.274;7.128;2023-06-19T01:34:07;22.10;1.00
12152;DHT22;6139;51.274;7.128;2023-06-19T01:35:09;22.10;1.00
12152;DHT22;6139;51.274;7.128;2023-06-19T01:36:14;22.20;99.90
12152;DHT22;6139;51.274;7.128;2023-06-19T01:37:15;22.10;1.00
12152;DHT22;6139;51.274;7.128;2023-06-19T01:38:20;22.20;99.90
12152;DHT22;6139;51.274;7.128;2023-06-19T01:39:23;22.20;1.00
12152;DHT22;6139;51.274;7.128;2023-06-19T01:40:26;22.20;1.00
12152;DHT22;6139;51.274;7.128;2023-06-19T01:41:30;22.20;1.00
12152;DHT22;6139;51.274;7.128;2023-06-19T01:42:34;22.20;1.00
12152;DHT22;6139;51.274;7.128;2023-06-19T01:43:38;22.20;1.00
12152;DHT22;6139;51.274;7.128;2023-06-19T01:44:40;22.20;99.90
12152;DHT22;6139;51.274;7.128;2023-06-19T01:45:42;22.20;99.90
12152;DHT22;6139;51.274;7.128;2023-06-19T01:46:47;22.20;99.90
12152;DHT22;6139;51.274;7.128;2023-06-19T01:47:48;22.20;99.90
12152;DHT22;6139;51.274;7.128;2023-06-19T01:48:51;22.20;99.90
12152;DHT22;6139;51.274;7.128;2023-06-19T01:49:53;22.20;99.90
12152;DHT22;6139;51.274;7.128;2023-06-19T01:50:55;22.20;99.90
12152;DHT22;6139;51.274;7.128;2023-06-19T01:51:55;22.20;99.90
12152;DHT22;6139;51.274;7.128;2023-06-19T01:52:58;22.20;99.90
12152;DHT22;6139;51.274;7.128;2023-06-19T01:54:00;22.20;99.90
12152;DHT22;6139;51.274;7.128;2023-06-19T01:55:02;22.20;99.90
12152;DHT22;6139;51.274;7.128;2023-06-19T01:56:03;22.20;99.90
12152;DHT22;6139;51.274;7.128;2023-06-19T01:57:06;22.20;99.90
12152;DHT22;6139;51.274;7.128;2023-06-19T01:58:07;22.20;14.20
12152;DHT22;6139;51.274;7.128;2023-06-19T01:59:09;22.20;20.50
12152;DHT22;6139;51.274;7.128;2023-06-19T02:00:11;22.20;24.80
12152;DHT22;6139;51.274;7.128;2023-06-19T02:01:16;22.20;1.00
12152;DHT22;6139;51.274;7.128;2023-06-19T02:02:17;22.20;1.00
12152;DHT22;6139;51.274;7.128;2023-06-19T02:03:19;22.20;1.00
12152;DHT22;6139;51.274;7.128;2023-06-19T02:04:20;22.20;1.00
12152;DHT22;6139;51.274;7.128;2023-06-19T02:05:22;22.10;1.00
12152;DHT22;6139;51.274;7.128;2023-06-19T02:06:23;22.10;1.00
12152;DHT22;6139;51.274;7.128;2023-06-19T02:07:25;22.10;1.00
12152;DHT22;6139;51.274;7.128;2023-06-19T02:08:27;22.10;1.00
12152;DHT22;6139;51.274;7.128;2023-06-19T02:09:30;22.10;1.00
12152;DHT22;6139;51.274;7.128;2023-06-19T02:10:31;22.00;90.90
12152;DHT22;6139;51.274;7.128;2023-06-19T02:11:33;22.00;99.90
12152;DHT22;6139;51.274;7.128;2023-06-19T02:12:35;22.00;99.90
12152;DHT22;6139;51.274;7.128;2023-06-19T02:13:37;22.00;96.60
12152;DHT22;6139;51.274;7.128;2023-06-19T02:14:38;22.00;41.80
12152;DHT22;6139;51.274;7.128;2023-06-19T02:15:39;22.00;67.00
12152;DHT22;6139;51.274;7.128;2023-06-19T02:16:41;22.00;99.90
12152;DHT22;6139;51.274;7.128;2023-06-19T02:17:44;21.90;99.90
12152;DHT22;6139;51.274;7.128;2023-06-19T02:18:45;22.00;99.90
12152;DHT22;6139;51.274;7.128;2023-06-19T02:19:47;21.90;99.90
12152;DHT22;6139;51.274;7.128;2023-06-19T02:20:48;21.90;99.90
12152;DHT22;6139;51.274;7.128;2023-06-19T02:21:50;21.90;1.00
12152;DHT22;6139;51.274;7.128;2023-06-19T02:22:52;21.90;1.00
12152;DHT22;6139;51.274;7.128;2023-06-19T02:23:53;21.90;1.00
12152;DHT22;6139;51.274;7.128;2023-06-19T02:24:56;21.90;1.00
12152;DHT22;6139;51.274;7.128;2023-06-19T02:25:58;21.80;1.00
12152;DHT22;6139;51.274;7.128;2023-06-19T02:26:59;21.80;1.00
12152;DHT22;6139;51.274;7.128;2023-06-19T02:28:02;21.90;1.00
12152;DHT22;6139;51.274;7.128;2023-06-19T02:29:04;21.80;1.00
12152;DHT22;6139;51.274;7.128;2023-06-19T02:30:07;21.80;1.00
12152;DHT22;6139;51.274;7.128;2023-06-19T02:31:08;21.80;1.00
12152;DHT22;6139;51.274;7.128;2023-06-19T02:32:10;21.80;99.90
12152;DHT22;6139;51.274;7.128;2023-06-19T02:33:11;21.80;99.90
12152;DHT22;6139;51.274;7.128;2023-06-19T02:36:40;21.80;99.90
12152;DHT22;6139;51.274;7.128;2023-06-19T02:37:43;21.80;1.00
12152;DHT22;6139;51.274;7.128;2023-06-19T02:38:45;21.80;99.90
12152;DHT22;6139;51.274;7.128;2023-06-19T02:39:48;21.80;99.90
12152;DHT22;6139;51.274;7.128;2023-06-19T02:40:51;21.80;1.00
12152;DHT22;6139;51.274;7.128;2023-06-19T02:41:53;21.80;1.00
12152;DHT22;6139;51.274;7.128;2023-06-19T02:42:53;21.80;1.00
12152;DHT22;6139;51.274;7.128;2023-06-19T02:43:55;21.80;1.00
12152;DHT22;6139;51.274;7.128;2023-06-19T02:44:56;21.80;99.90
12152;DHT22;6139;51.274;7.128;2023-06-19T02:46:04;21.80;99.90
12152;DHT22;6139;51.274;7.128;2023-06-19T02:47:05;21.80;99.90
12152;DHT22;6139;51.274;7.128;2023-06-19T02:48:07;21.80;99.90
12152;DHT22;6139;51.274;7.128;2023-06-19T02:49:08;21.80;1.00
12152;DHT22;6139;51.274;7.128;2023-06-19T02:50:11;21.80;1.00
12152;DHT22;6139;51.274;7.128;2023-06-19T02:51:12;21.80;1.00
12152;DHT22;6139;51.274;7.128;2023-06-19T02:52:14;21.80;1.00
12152;DHT22;6139;51.274;7.128;2023-06-19T02:53:15;21.70;1.00
12152;DHT22;6139;51.274;7.128;2023-06-19T02:54:18;21.70;1.00
12152;DHT22;6139;51.274;7.128;2023-06-19T02:55:19;21.70;2.10
12152;DHT22;6139;51.274;7.128;2023-06-19T02:56:22;21.70;1.00
12152;DHT22;6139;51.274;7.128;2023-06-19T02:57:23;21.70;1.00
12152;DHT22;6139;51.274;7.128;2023-06-19T02:58:25;21.70;1.00
12152;DHT22;6139;51.274;7.128;2023-06-19T02:59:27;21.70;1.00
12152;DHT22;6139;51.274;7.128;2023-06-19T03:00:29;21.70;99.90
12152;DHT22;6139;51.274;7.128;2023-06-19T03:01:30;21.70;99.90
12152;DHT22;6139;51.274;7.128;2023-06-19T03:02:32;21.70;1.00
12152;DHT22;6139;51.274;7.128;2023-06-19T03:03:34;21.70;1.00
12152;DHT22;6139;51.274;7.128;2023-06-19T03:04:38;21.70;1.00
12152;DHT22;6139;51.274;7.128;2023-06-19T03:05:39;21.70;1.00
12152;DHT22;6139;51.274;7.128;2023-06-19T03:06:40;21.70;1.00
12152;DHT22;6139;51.274;7.128;2023-06-19T03:07:42;21.70;1.00
12152;DHT22;6139;51.274;7.128;2023-06-19T03:08:43;21.70;1.00
12152;DHT22;6139;51.274;7.128;2023-06-19T03:09:45;21.70;1.00
12152;DHT22;6139;51.274;7.128;2023-06-19T03:10:47;21.70;1.00
12152;DHT22;6139;51.274;7.128;2023-06-19T03:11:49;21.70;1.00
12152;DHT22;6139;51.274;7.128;2023-06-19T03:12:51;21.70;1.00
12152;DHT22;6139;51.274;7.128;2023-06-19T03:13:53;21.70;1.00
12152;DHT22;6139;51.274;7.128;2023-06-19T03:14:55;21.80;1.00
12152;DHT22;6139;51.274;7.128;2023-06-19T03:15:57;21.70;1.00
12152;DHT22;6139;51.274;7.128;2023-06-19T03:16:59;21.70;99.90
12152;DHT22;6139;51.274;7.128;2023-06-19T03:18:01;21.70;99.90
12152;DHT22;6139;51.274;7.128;2023-06-19T03:19:07;21.70;99.90
12152;DHT22;6139;51.274;7.128;2023-06-19T03:20:10;21.70;99.90
12152;DHT22;6139;51.274;7.128;2023-06-19T03:21:16;21.60;1.00
12152;DHT22;6139;51.274;7.128;2023-06-19T03:22:20;21.60;1.00
12152;DHT22;6139;51.274;7.128;2023-06-19T03:23:22;21.60;99.90
12152;DHT22;6139;51.274;7.128;2023-06-19T03:24:23;21.60;1.00
12152;DHT22;6139;51.274;7.128;2023-06-19T03:25:28;21.70;1.00
12152;DHT22;6139;51.274;7.128;2023-06-19T03:26:35;21.60;1.00
12152;DHT22;6139;51.274;7.128;2023-06-19T03:27:39;21.60;99.90
12152;DHT22;6139;51.274;7.128;2023-06-19T03:28:40;21.60;1.00
12152;DHT22;6139;51.274;7.128;2023-06-19T03:29:43;21.60;26.10
12152;DHT22;6139;51.274;7.128;2023-06-19T03:30:48;21.50;99.90
12152;DHT22;6139;51.274;7.128;2023-06-19T03:31:54;21.50;99.90
12152;DHT22;6139;51.274;7.128;2023-06-19T03:32:58;21.50;1.00
12152;DHT22;6139;51.274;7.128;2023-06-19T03:34:17;21.50;99.90
12152;DHT22;6139;51.274;7.128;2023-06-19T03:35:18;21.40;1.00
12152;DHT22;6139;51.274;7.128;2023-06-19T03:36:20;21.40;1.00
12152;DHT22;6139;51.274;7.128;2023-06-19T03:37:25;21.30;99.90
12152;DHT22;6139;51.274;7.128;2023-06-19T03:38:27;21.30;89.10
12152;DHT22;6139;51.274;7.128;2023-06-19T03:39:29;21.30;1.00
12152;DHT22;6139;51.274;7.128;2023-06-19T03:40:36;21.20;1.00
12152;DHT22;6139;51.274;7.128;2023-06-19T03:41:44;21.20;1.00
12152;DHT22;6139;51.274;7.128;2023-06-19T03:42:46;21.20;1.00
12152;DHT22;6139;51.274;7.128;2023-06-19T03:43:48;21.10;1.00
12152;DHT22;6139;51.274;7.128;2023-06-19T03:44:50;21.10;99.90
12152;DHT22;6139;51.274;7.128;2023-06-19T03:45:52;21.00;1.00
12152;DHT22;6139;51.274;7.128;2023-06-19T03:46:53;21.00;99.90
12152;DHT22;6139;51.274;7.128;2023-06-19T03:47:55;21.00;1.00
12152;DHT22;6139;51.274;7.128;2023-06-19T03:48:56;20.90;1.00
12152;DHT22;6139;51.274;7.128;2023-06-19T03:49:57;20.90;1.00
12152;DHT22;6139;51.274;7.128;2023-06-19T03:50:59;20.90;1.00
12152;DHT22;6139;51.274;7.128;2023-06-19T03:52:04;20.80;1.00
12152;DHT22;6139;51.274;7.128;2023-06-19T03:53:05;20.80;1.00
12152;DHT22;6139;51.274;7.128;2023-06-19T03:54:07;20.80;99.90
12152;DHT22;6139;51.274;7.128;2023-06-19T03:55:08;20.70;1.00
12152;DHT22;6139;51.274;7.128;2023-06-19T03:56:10;20.70;1.00
12152;DHT22;6139;51.274;7.128;2023-06-19T03:57:11;20.70;99.90
12152;DHT22;6139;51.274;7.128;2023-06-19T03:58:15;20.70;99.90
12152;DHT22;6139;51.274;7.128;2023-06-19T03:59:16;20.60;99.90
12152;DHT22;6139;51.274;7.128;2023-06-19T04:00:18;20.60;99.90
12152;DHT22;6139;51.274;7.128;2023-06-19T04:01:19;20.60;99.90
12152;DHT22;6139;51.274;7.128;2023-06-19T04:02:23;20.50;99.90
12152;DHT22;6139;51.274;7.128;2023-06-19T04:03:24;20.50;99.90
12152;DHT22;6139;51.274;7.128;2023-06-19T04:04:26;20.50;99.90
12152;DHT22;6139;51.274;7.128;2023-06-19T04:05:27;20.50;99.90
12152;DHT22;6139;51.274;7.128;2023-06-19T04:06:29;20.50;1.00
12152;DHT22;6139;51.274;7.128;2023-06-19T04:07:30;20.50;1.00
12152;DHT22;6139;51.274;7.128;2023-06-19T04:08:33;20.50;99.90
12152;DHT22;6139;51.274;7.128;2023-06-19T04:09:34;20.40;99.90
12152;DHT22;6139;51.274;7.128;2023-06-19T04:10:36;20.40;1.00
12152;DHT22;6139;51.274;7.128;2023-06-19T04:11:37;20.40;1.00
12152;DHT22;6139;51.274;7.128;2023-06-19T04:12:39;20.40;1.00
12152;DHT22;6139;51.274;7.128;2023-06-19T04:13:42;20.50;1.00
12152;DHT22;6139;51.274;7.128;2023-06-19T04:14:44;20.50;1.00
12152;DHT22;6139;51.274;7.128;2023-06-19T04:15:45;20.50;1.00
12152;DHT22;6139;51.274;7.128;2023-06-19T04:16:47;20.50;1.00
12152;DHT22;6139;51.274;7.128;2023-06-19T04:17:48;20.50;1.00
12152;DHT22;6139;51.274;7.128;2023-06-19T04:18:50;20.50;1.00
12152;DHT22;6139;51.274;7.128;2023-06-19T04:19:51;20.50;1.00
12152;DHT22;6139;51.274;7.128;2023-06-19T04:20:54;20.50;1.00
12152;DHT22;6139;51.274;7.128;2023-06-19T04:21:55;20.40;1.00
12152;DHT22;6139;51.274;7.128;2023-06-19T04:22:57;20.40;1.00
12152;DHT22;6139;51.274;7.128;2023-06-19T04:23:58;20.40;1.00
12152;DHT22;6139;51.274;7.128;2023-06-19T04:25:00;20.40;1.00
12152;DHT22;6139;51.274;7.128;2023-06-19T04:26:01;20.40;1.00
12152;DHT22;6139;51.274;7.128;2023-06-19T04:27:04;20.40;1.00
12152;DHT22;6139;51.274;7.128;2023-06-19T04:28:05;20.40;1.00
12152;DHT22;6139;51.274;7.128;2023-06-19T04:29:08;20.40;1.00
12152;DHT22;6139;51.274;7.128;2023-06-19T04:30:17;20.30;1.00
12152;DHT22;6139;51.274;7.128;2023-06-19T04:31:21;20.40;1.00
12152;DHT22;6139;51.274;7.128;2023-06-19T04:32:22;20.40;1.00
12152;DHT22;6139;51.274;7.128;2023-06-19T04:33:24;20.40;1.00
12152;DHT22;6139;51.274;7.128;2023-06-19T04:34:25;20.40;1.00
12152;DHT22;6139;51.274;7.128;2023-06-19T04:35:27;20.40;1.00
12152;DHT22;6139;51.274;7.128;2023-06-19T04:36:28;20.40;1.00
12152;DHT22;6139;51.274;7.128;2023-06-19T04:37:32;20.40;1.00
12152;DHT22;6139;51.274;7.128;2023-06-19T04:38:33;20.40;1.00
12152;DHT22;6139;51.274;7.128;2023-06-19T04:39:35;20.40;1.00
12152;DHT22;6139;51.274;7.128;2023-06-19T04:40:36;20.40;1.00
12152;DHT22;6139;51.274;7.128;2023-06-19T04:41:38;20.40;1.00
12152;DHT22;6139;51.274;7.128;2023-06-19T04:42:39;20.40;1.00
12152;DHT22;6139;51.274;7.128;2023-06-19T04:43:41;20.40;1.00
12152;DHT22;6139;51.274;7.128;2023-06-19T04:44:43;20.50;1.00
12152;DHT22;6139;51.274;7.128;2023-06-19T04:45:45;20.40;1.00
12152;DHT22;6139;51.274;7.128;2023-06-19T04:46:47;20.40;1.00
12152;DHT22;6139;51.274;7.128;2023-06-19T04:47:49;20.40;1.00
12152;DHT22;6139;51.274;7.128;2023-06-19T04:48:50;20.40;1.00
12152;DHT22;6139;51.274;7.128;2023-06-19T04:49:52;20.40;1.00
12152;DHT22;6139;51.274;7.128;2023-06-19T04:50:53;20.30;1.00
12152;DHT22;6139;51.274;7.128;2023-06-19T04:51:56;20.40;1.00
12152;DHT22;6139;51.274;7.128;2023-06-19T04:52:58;20.40;1.00
12152;DHT22;6139;51.274;7.128;2023-06-19T04:54:00;20.40;1.00
12152;DHT22;6139;51.274;7.128;2023-06-19T04:55:02;20.40;1.00
12152;DHT22;6139;51.274;7.128;2023-06-19T04:56:03;20.40;1.00
12152;DHT22;6139;51.274;7.128;2023-06-19T04:57:06;20.40;1.00
12152;DHT22;6139;51.274;7.128;2023-06-19T04:58:07;20.40;1.00
12152;DHT22;6139;51.274;7.128;2023-06-19T04:59:09;20.40;1.00
12152;DHT22;6139;51.274;7.128;2023-06-19T05:00:12;20.40;1.00
12152;DHT22;6139;51.274;7.128;2023-06-19T05:01:15;20.40;1.00
12152;DHT22;6139;51.274;7.128;2023-06-19T05:02:16;20.30;1.00
12152;DHT22;6139;51.274;7.128;2023-06-19T05:03:18;20.30;1.00
12152;DHT22;6139;51.274;7.128;2023-06-19T05:04:20;20.20;1.00
12152;DHT22;6139;51.274;7.128;2023-06-19T05:05:23;20.20;1.00
12152;DHT22;6139;51.274;7.128;2023-06-19T05:06:25;20.20;1.00
12152;DHT22;6139;51.274;7.128;2023-06-19T05:07:26;20.30;1.00
12152;DHT22;6139;51.274;7.128;2023-06-19T05:08:28;20.30;1.00
12152;DHT22;6139;51.274;7.128;2023-06-19T05:09:29;20.20;1.00
12152;DHT22;6139;51.274;7.128;2023-06-19T05:10:31;20.30;1.00
12152;DHT22;6139;51.274;7.128;2023-06-19T05:11:32;20.30;1.00
12152;DHT22;6139;51.274;7.128;2023-06-19T05:12:34;20.30;1.00
12152;DHT22;6139;51.274;7.128;2023-06-19T05:13:35;20.30;1.00
12152;DHT22;6139;51.274;7.128;2023-06-19T05:14:37;20.30;1.00
12152;DHT22;6139;51.274;7.128;2023-06-19T05:15:40;20.30;1.00
12152;DHT22;6139;51.274;7.128;2023-06-19T05:16:42;20.30;1.00
12152;DHT22;6139;51.274;7.128;2023-06-19T05:17:43;20.30;1.00
12152;DHT22;6139;51.274;7.128;2023-06-19T05:18:46;20.30;1.00
12152;DHT22;6139;51.274;7.128;2023-06-19T05:19:48;20.30;1.00
12152;DHT22;6139;51.274;7.128;2023-06-19T05:20:50;20.20;1.00
12152;DHT22;6139;51.274;7.128;2023-06-19T05:21:51;20.20;1.00
12152;DHT22;6139;51.274;7.128;2023-06-19T05:22:53;20.30;1.00
12152;DHT22;6139;51.274;7.128;2023-06-19T05:23:54;20.30;1.00
12152;DHT22;6139;51.274;7.128;2023-06-19T05:24:56;20.30;1.00
12152;DHT22;6139;51.274;7.128;2023-06-19T05:25:57;20.30;1.00
12152;DHT22;6139;51.274;7.128;2023-06-19T05:26:59;20.30;1.00
12152;DHT22;6139;51.274;7.128;2023-06-19T05:28:01;20.40;1.00
12152;DHT22;6139;51.274;7.128;2023-06-19T05:29:02;20.40;1.00
12152;DHT22;6139;51.274;7.128;2023-06-19T05:30:05;20.40;1.00
12152;DHT22;6139;51.274;7.128;2023-06-19T05:31:08;20.50;1.00
12152;DHT22;6139;51.274;7.128;2023-06-19T05:32:09;20.40;1.00
12152;DHT22;6139;51.274;7.128;2023-06-19T05:33:10;20.40;1.00
12152;DHT22;6139;51.274;7.128;2023-06-19T05:34:16;20.50;1.00
12152;DHT22;6139;51.274;7.128;2023-06-19T05:35:18;20.50;1.00
12152;DHT22;6139;51.274;7.128;2023-06-19T05:36:20;20.50;1.00
12152;DHT22;6139;51.274;7.128;2023-06-19T05:37:21;20.50;1.00
12152;DHT22;6139;51.274;7.128;2023-06-19T05:38:23;20.50;1.00
12152;DHT22;6139;51.274;7.128;2023-06-19T05:39:26;20.50;1.00
12152;DHT22;6139;51.274;7.128;2023-06-19T05:40:28;20.50;1.00
12152;DHT22;6139;51.274;7.128;2023-06-19T05:41:29;20.50;1.00
12152;DHT22;6139;51.274;7.128;2023-06-19T05:42:32;20.50;1.00
12152;DHT22;6139;51.274;7.128;2023-06-19T05:43:33;20.60;1.00
12152;DHT22;6139;51.274;7.128;2023-06-19T05:44:35;20.50;1.00
12152;DHT22;6139;51.274;7.128;2023-06-19T05:45:36;20.50;1.00
12152;DHT22;6139;51.274;7.128;2023-06-19T05:46:39;20.50;1.00
12152;DHT22;6139;51.274;7.128;2023-06-19T05:47:40;20.50;1.00
12152;DHT22;6139;51.274;7.128;2023-06-19T05:48:42;20.50;1.00
12152;DHT22;6139;51.274;7.128;2023-06-19T05:49:43;20.50;1.00
12152;DHT22;6139;51.274;7.128;2023-06-19T05:50:45;20.40;1.00
12152;DHT22;6139;51.274;7.128;2023-06-19T05:51:46;20.40;1.00
12152;DHT22;6139;51.274;7.128;2023-06-19T05:52:48;20.40;1.00
12152;DHT22;6139;51.274;7.128;2023-06-19T05:53:49;20.40;1.00
12152;DHT22;6139;51.274;7.128;2023-06-19T05:54:51;20.40;1.00
12152;DHT22;6139;51.274;7.128;2023-06-19T05:55:53;20.50;1.00
12152;DHT22;6139;51.274;7.128;2023-06-19T05:56:55;20.50;1.00
12152;DHT22;6139;51.274;7.128;2023-06-19T05:57:56;20.50;1.00
12152;DHT22;6139;51.274;7.128;2023-06-19T05:58:58;20.50;1.00
12152;DHT22;6139;51.274;7.128;2023-06-19T06:00:00;20.50;1.00
12152;DHT22;6139;51.274;7.128;2023-06-19T06:01:13;20.50;1.00
12152;DHT22;6139;51.274;7.128;2023-06-19T06:02:16;20.50;1.00
12152;DHT22;6139;51.274;7.128;2023-06-19T06:03:18;20.50;1.00
12152;DHT22;6139;51.274;7.128;2023-06-19T06:04:20;20.50;1.00
12152;DHT22;6139;51.274;7.128;2023-06-19T06:05:22;20.50;1.00
12152;DHT22;6139;51.274;7.128;2023-06-19T06:06:26;20.60;1.00
12152;DHT22;6139;51.274;7.128;2023-06-19T06:07:26;20.60;1.00
12152;DHT22;6139;51.274;7.128;2023-06-19T06:08:29;20.60;1.00
12152;DHT22;6139;51.274;7.128;2023-06-19T06:09:30;20.60;1.00
12152;DHT22;6139;51.274;7.128;2023-06-19T06:10:33;20.60;1.00
12152;DHT22;6139;51.274;7.128;2023-06-19T06:11:34;20.60;1.00
12152;DHT22;6139;51.274;7.128;2023-06-19T06:12:36;20.60;1.00
12152;DHT22;6139;51.274;7.128;2023-06-19T06:13:37;20.60;1.00
12152;DHT22;6139;51.274;7.128;2023-06-19T06:14:40;20.60;1.00
12152;DHT22;6139;51.274;7.128;2023-06-19T06:15:41;20.60;1.00
12152;DHT22;6139;51.274;7.128;2023-06-19T06:16:43;20.60;1.00
12152;DHT22;6139;51.274;7.128;2023-06-19T06:17:46;20.60;1.00
12152;DHT22;6139;51.274;7.128;2023-06-19T06:18:48;20.60;1.00
12152;DHT22;6139;51.274;7.128;2023-06-19T06:19:49;20.60;1.00
12152;DHT22;6139;51.274;7.128;2023-06-19T06:20:50;20.60;1.00
12152;DHT22;6139;51.274;7.128;2023-06-19T06:21:52;20.60;1.00
12152;DHT22;6139;51.274;7.128;2023-06-19T06:22:53;20.60;1.00
12152;DHT22;6139;51.274;7.128;2023-06-19T06:23:55;20.60;1.00
12152;DHT22;6139;51.274;7.128;2023-06-19T06:24:56;20.60;1.00
12152;DHT22;6139;51.274;7.128;2023-06-19T06:25:58;20.60;1.00
12152;DHT22;6139;51.274;7.128;2023-06-19T06:27:03;20.60;1.00
12152;DHT22;6139;51.274;7.128;2023-06-19T06:28:04;20.70;1.00
12152;DHT22;6139;51.274;7.128;2023-06-19T06:29:06;20.70;1.00
12152;DHT22;6139;51.274;7.128;2023-06-19T06:30:10;20.70;1.00
12152;DHT22;6139;51.274;7.128;2023-06-19T06:31:12;20.70;1.00
12152;DHT22;6139;51.274;7.128;2023-06-19T06:32:14;20.80;1.00
12152;DHT22;6139;51.274;7.128;2023-06-19T06:33:16;20.80;1.00
12152;DHT22;6139;51.274;7.128;2023-06-19T06:34:18;20.80;1.00
12152;DHT22;6139;51.274;7.128;2023-06-19T06:35:19;20.80;99.90
12152;DHT22;6139;51.274;7.128;2023-06-19T06:36:22;20.70;1.00
12152;DHT22;6139;51.274;7.128;2023-06-19T06:37:23;20.70;1.00
12152;DHT22;6139;51.274;7.128;2023-06-19T06:38:24;20.80;1.00
12152;DHT22;6139;51.274;7.128;2023-06-19T06:39:26;20.80;1.00
12152;DHT22;6139;51.274;7.128;2023-06-19T06:40:28;20.80;1.00
12152;DHT22;6139;51.274;7.128;2023-06-19T06:41:29;20.80;1.00
12152;DHT22;6139;51.274;7.128;2023-06-19T06:42:30;20.80;1.00
12152;DHT22;6139;51.274;7.128;2023-06-19T06:43:31;20.90;1.00
12152;DHT22;6139;51.274;7.128;2023-06-19T06:44:33;20.90;1.00
12152;DHT22;6139;51.274;7.128;2023-06-19T06:45:34;20.90;99.90
12152;DHT22;6139;51.274;7.128;2023-06-19T06:46:38;21.00;99.90
12152;DHT22;6139;51.274;7.128;2023-06-19T06:47:39;21.00;99.90